Terminal Aerodrome Forecast
Issued by NWS

Home | Current Version | Previous Version | Text Only | Print | Product List | Glossary On
Versions: 1 2 3 4 5 6 7 8 9 10 11 12 13 14 15 16
810
FTUS43 KICT 242335
TAFRSL
TAF
KRSL 242335Z 2500/2524 36017G26KT P6SM OVC170
     FM250200 35013KT P6SM OVC150
     FM250500 33009KT P6SM BKN150=

USA.gov is the U.S. government's official web portal to all federal, state and local government web resources and services.